createdAt,value
2022-07-28T00:00:29.422Z,100.00
2022-07-28T00:03:21.984Z,100.00
2022-07-28T00:05:58.373Z,100.00
2022-07-28T00:11:22.966Z,100.00
2022-07-28T00:13:55.374Z,100.00
2022-07-28T00:19:45.529Z,100.00
2022-07-28T00:22:15.120Z,100.00
2022-07-28T00:24:59.060Z,100.00
2022-07-28T00:27:56.037Z,100.00
2022-07-28T00:30:38.496Z,100.00
2022-07-28T00:33:32.125Z,100.00
2022-07-28T00:36:11.713Z,100.00
2022-07-28T00:41:52.593Z,100.00
2022-07-28T00:44:24.713Z,100.00
2022-07-28T00:47:14.560Z,100.00
2022-07-28T00:50:00.287Z,100.00
2022-07-28T00:52:32.705Z,100.00
2022-07-28T00:55:13.185Z,100.00
2022-07-28T00:57:42.216Z,100.00
2022-07-28T01:00:33.390Z,100.00
2022-07-28T01:03:09.225Z,100.00
2022-07-28T01:05:47.986Z,100.00
2022-07-28T01:08:58.033Z,100.00
2022-07-28T01:14:35.548Z,100.00
2022-07-28T01:17:20.311Z,100.00
2022-07-28T01:20:05.710Z,100.00
2022-07-28T01:22:39.721Z,100.00
2022-07-28T01:26:11.033Z,100.00
2022-07-28T01:29:15.342Z,100.00
2022-07-28T01:31:53.762Z,100.00
2022-07-28T01:34:29.934Z,100.00
2022-07-28T01:37:16.635Z,100.00
2022-07-28T01:39:57.694Z,100.00
2022-07-28T01:45:38.097Z,100.00
2022-07-28T01:48:06.245Z,100.00
2022-07-28T01:50:47.165Z,100.00
2022-07-28T01:53:19.288Z,100.00
2022-07-28T01:55:57.173Z,100.00
2022-07-28T01:58:28.255Z,100.00
2022-07-28T02:01:01.921Z,100.00
2022-07-28T02:03:32.913Z,100.00
2022-07-28T02:06:08.900Z,100.00
2022-07-28T02:08:42.363Z,100.00
2022-07-28T02:11:35.127Z,100.00
2022-07-28T02:14:03.162Z,100.00
2022-07-28T02:16:33.643Z,100.00
2022-07-28T02:19:08.375Z,100.00
2022-07-28T02:21:38.985Z,100.00
2022-07-28T02:24:17.005Z,100.00
2022-07-28T02:26:52.666Z,100.00
2022-07-28T02:29:49.881Z,100.00
2022-07-28T02:32:27.405Z,100.00
2022-07-28T02:35:03.129Z,100.00
2022-07-28T02:37:53.186Z,100.00
2022-07-28T02:40:39.874Z,100.00
2022-07-28T02:43:17.101Z,100.00
2022-07-28T02:45:58.987Z,100.00
2022-07-28T02:48:28.544Z,100.00
2022-07-28T02:51:02.297Z,100.00
2022-07-28T02:53:40.051Z,100.00
2022-07-28T02:56:12.963Z,100.00
2022-07-28T02:58:50.763Z,100.00
2022-07-28T03:01:32.261Z,100.00
2022-07-28T03:04:05.155Z,100.00
2022-07-28T03:06:32.395Z,100.00
2022-07-28T03:09:11.468Z,100.00
2022-07-28T03:11:56.647Z,100.00
2022-07-28T03:14:31.225Z,100.00
2022-07-28T03:17:01.634Z,100.00
2022-07-28T03:19:37.967Z,100.00
2022-07-28T03:22:10.529Z,100.00
2022-07-28T03:24:50.528Z,100.00
2022-07-28T03:27:39.579Z,100.00
2022-07-28T03:30:21.991Z,100.00
2022-07-28T03:33:02.785Z,100.00
2022-07-28T03:35:43.112Z,100.00
2022-07-28T03:38:29.683Z,100.00
2022-07-28T03:40:59.893Z,100.00
2022-07-28T03:43:38.331Z,100.00
2022-07-28T03:46:26.923Z,100.00
2022-07-28T03:49:03.493Z,100.00
2022-07-28T03:51:33.205Z,100.00
2022-07-28T03:54:04.273Z,100.00
2022-07-28T03:56:36.276Z,100.00
2022-07-28T03:59:13.467Z,100.00
2022-07-28T04:01:47.109Z,100.00
2022-07-28T04:04:18.516Z,100.00
2022-07-28T04:06:56.989Z,100.00
2022-07-28T04:09:32.261Z,100.00
2022-07-28T04:12:10.538Z,100.00
2022-07-28T04:14:46.532Z,100.00
2022-07-28T04:17:25.161Z,100.00
2022-07-28T04:20:15.208Z,100.00
2022-07-28T04:22:54.732Z,100.00
2022-07-28T04:25:37.914Z,100.00
2022-07-28T04:28:09.482Z,100.00
2022-07-28T04:30:43.863Z,100.00
2022-07-28T04:33:19.557Z,100.00
2022-07-28T04:35:47.074Z,100.00
2022-07-28T04:38:18.175Z,100.00
2022-07-28T04:40:45.384Z,100.00
2022-07-28T04:43:14.752Z,100.00
2022-07-28T04:45:46.173Z,100.00
2022-07-28T04:48:20.506Z,100.00
2022-07-28T04:50:47.277Z,100.00
2022-07-28T04:53:18.294Z,100.00
2022-07-28T04:55:45.069Z,100.00
2022-07-28T04:58:13.570Z,100.00
2022-07-28T05:00:41.773Z,100.00
2022-07-28T05:03:08.968Z,100.00
2022-07-28T05:05:35.479Z,100.00
2022-07-28T05:08:02.069Z,100.00
2022-07-28T05:10:28.672Z,100.00
2022-07-28T05:12:55.211Z,100.00
2022-07-28T05:15:22.924Z,100.00
2022-07-28T05:17:51.052Z,100.00
2022-07-28T05:20:17.647Z,100.00
2022-07-28T05:22:48.493Z,100.00
2022-07-28T05:25:19.650Z,100.00
2022-07-28T05:27:46.787Z,100.00
2022-07-28T05:30:14.616Z,100.00
2022-07-28T05:32:42.151Z,100.00
2022-07-28T05:35:09.296Z,100.00
2022-07-28T05:37:37.477Z,100.00
2022-07-28T05:40:09.417Z,100.00
2022-07-28T05:42:36.805Z,98.49
2022-07-28T05:45:16.815Z,93.87
2022-07-28T05:47:46.325Z,89.27
2022-07-28T05:50:17.334Z,87.17
2022-07-28T05:52:45.013Z,88.22
2022-07-28T05:55:12.254Z,88.66
2022-07-28T05:57:39.945Z,85.74
2022-07-28T06:00:09.138Z,84.52
2022-07-28T06:02:36.137Z,83.74
2022-07-28T06:05:02.895Z,83.11
2022-07-28T06:07:42.677Z,80.85
2022-07-28T06:10:17.066Z,79.92
2022-07-28T06:12:47.238Z,78.43
2022-07-28T06:15:15.988Z,76.31
2022-07-28T06:17:43.162Z,78.18
2022-07-28T06:20:11.498Z,77.17
2022-07-28T06:22:46.257Z,74.72
2022-07-28T06:25:26.181Z,74.79
2022-07-28T06:27:59.116Z,73.95
2022-07-28T06:30:26.900Z,73.13
2022-07-28T06:32:55.003Z,68.11
2022-07-28T06:35:24.410Z,62.47
2022-07-28T06:38:00.640Z,61.01
2022-07-28T06:40:51.682Z,58.53
2022-07-28T06:43:18.693Z,55.41
2022-07-28T06:45:46.061Z,55.24
2022-07-28T06:48:13.831Z,53.43
2022-07-28T06:50:41.815Z,50.56
2022-07-28T06:53:08.616Z,53.76
2022-07-28T06:55:36.076Z,52.99
2022-07-28T06:58:18.972Z,55.13
2022-07-28T07:00:45.911Z,53.92
2022-07-28T07:03:48.044Z,50.20
2022-07-28T07:06:14.708Z,44.75
2022-07-28T07:08:43.782Z,43.96
2022-07-28T07:11:10.833Z,42.68
2022-07-28T07:13:37.511Z,44.02
2022-07-28T07:16:04.474Z,42.07
2022-07-28T07:18:31.255Z,41.61
2022-07-28T07:21:02.782Z,42.23
2022-07-28T07:23:39.599Z,40.38
2022-07-28T07:26:11.143Z,39.62
2022-07-28T07:28:45.171Z,39.04
2022-07-28T07:31:16.480Z,37.98
2022-07-28T07:33:49.435Z,38.19
2022-07-28T07:36:37.294Z,35.53
2022-07-28T07:39:38.870Z,36.50
2022-07-28T07:42:24.926Z,37.36
2022-07-28T07:44:52.568Z,34.90
2022-07-28T07:47:52.238Z,34.86
2022-07-28T07:51:20.050Z,32.83
2022-07-28T07:53:47.059Z,30.62
2022-07-28T07:56:16.094Z,34.29
2022-07-28T07:59:05.819Z,32.60
2022-07-28T08:01:40.410Z,32.99
2022-07-28T08:04:11.084Z,31.98
2022-07-28T08:06:38.417Z,33.62
2022-07-28T08:09:12.452Z,32.21
2022-07-28T08:13:03.863Z,31.96
2022-07-28T08:15:47.572Z,30.89
2022-07-28T08:18:16.853Z,27.57
2022-07-28T08:21:02.802Z,29.63
2022-07-28T08:23:45.732Z,28.63
2022-07-28T08:26:22.387Z,26.93
2022-07-28T08:28:53.697Z,28.71
2022-07-28T08:31:24.437Z,29.02
2022-07-28T08:34:09.798Z,28.88
2022-07-28T08:37:08.172Z,29.29
2022-07-28T08:39:37.858Z,29.36
2022-07-28T08:42:12.511Z,29.01
2022-07-28T08:44:55.023Z,28.20
2022-07-28T08:48:08.861Z,26.62
2022-07-28T08:51:23.783Z,27.29
2022-07-28T08:54:13.064Z,27.84
2022-07-28T08:57:28.302Z,27.33
2022-07-28T09:00:08.303Z,27.01
2022-07-28T09:02:52.726Z,25.27
2022-07-28T09:06:11.002Z,26.96
2022-07-28T09:09:07.088Z,28.19
2022-07-28T09:11:50.785Z,27.83
2022-07-28T09:14:25.155Z,28.34
2022-07-28T09:16:53.175Z,27.17
2022-07-28T09:19:19.923Z,26.25
2022-07-28T09:21:47.169Z,28.14
2022-07-28T09:24:42.818Z,25.71
2022-07-28T09:27:14.050Z,26.00
2022-07-28T09:29:45.830Z,26.56
2022-07-28T09:32:21.642Z,24.66
2022-07-28T09:34:53.020Z,23.96
2022-07-28T09:37:29.951Z,23.76
2022-07-28T09:40:00.334Z,26.07
2022-07-28T09:42:49.958Z,24.14
2022-07-28T09:45:23.963Z,23.96
2022-07-28T09:48:17.678Z,25.77
2022-07-28T09:50:50.423Z,26.30
2022-07-28T09:53:21.889Z,25.85
2022-07-28T09:55:59.786Z,24.63
2022-07-28T09:58:58.149Z,24.25
2022-07-28T10:01:25.680Z,26.07
2022-07-28T10:04:02.937Z,26.49
2022-07-28T10:06:42.667Z,26.08
2022-07-28T10:09:14.377Z,24.42
2022-07-28T10:11:41.843Z,26.18
2022-07-28T10:14:08.802Z,25.03
2022-07-28T10:16:43.267Z,24.62
2022-07-28T10:19:17.549Z,24.38
2022-07-28T10:21:50.910Z,23.96
2022-07-28T10:24:27.682Z,26.70
2022-07-28T10:26:56.854Z,27.53
2022-07-28T10:29:24.542Z,27.03
2022-07-28T10:31:55.831Z,26.68
2022-07-28T10:34:55.865Z,27.50
2022-07-28T10:37:28.775Z,26.75
2022-07-28T10:40:15.095Z,26.21
2022-07-28T10:42:41.913Z,23.34
2022-07-28T10:45:11.397Z,24.06
2022-07-28T10:47:38.066Z,24.08
2022-07-28T10:50:05.356Z,25.06
2022-07-28T10:52:52.565Z,26.31
2022-07-28T10:55:57.269Z,25.97
2022-07-28T10:58:46.472Z,24.70
2022-07-28T11:01:50.051Z,24.04
2022-07-28T11:04:57.015Z,26.61
2022-07-28T11:07:42.699Z,24.26
2022-07-28T11:10:20.534Z,24.80
2022-07-28T11:12:56.036Z,24.41
2022-07-28T11:15:34.780Z,24.58
2022-07-28T11:18:08.747Z,25.00
2022-07-28T11:21:00.229Z,23.60
2022-07-28T11:23:50.169Z,23.72
2022-07-28T11:26:22.144Z,22.75
2022-07-28T11:29:10.887Z,24.33
2022-07-28T11:31:46.729Z,25.49
2022-07-28T11:34:27.448Z,24.71
2022-07-28T11:37:02.729Z,25.63
2022-07-28T11:39:44.111Z,23.15
2022-07-28T11:42:34.069Z,25.94
2022-07-28T11:45:47.774Z,26.64
2022-07-28T11:48:40.763Z,27.15
2022-07-28T11:51:07.275Z,28.43
2022-07-28T11:53:38.035Z,27.87
2022-07-28T11:56:09.283Z,25.87
2022-07-28T11:58:36.421Z,26.05
2022-07-28T12:01:13.708Z,25.02
2022-07-28T12:03:49.234Z,24.10
2022-07-28T12:06:28.810Z,24.54
2022-07-28T12:09:02.259Z,25.24
2022-07-28T12:11:33.266Z,25.63
2022-07-28T12:14:03.553Z,24.43
2022-07-28T12:16:31.645Z,25.44
2022-07-28T12:19:00.655Z,24.91
2022-07-28T12:21:46.462Z,26.75
2022-07-28T12:24:30.917Z,26.35
2022-07-28T12:26:58.445Z,26.15
2022-07-28T12:29:35.818Z,26.25
2022-07-28T12:32:06.933Z,28.06
2022-07-28T12:34:39.700Z,26.53
2022-07-28T12:37:09.806Z,26.53
2022-07-28T12:39:39.678Z,26.40
2022-07-28T12:42:08.517Z,26.14
2022-07-28T12:44:38.812Z,26.95
2022-07-28T12:47:08.282Z,26.86
2022-07-28T12:49:37.661Z,26.83
2022-07-28T12:52:24.344Z,26.59
2022-07-28T12:54:54.671Z,27.61
2022-07-28T12:57:48.897Z,27.86
2022-07-28T13:00:19.182Z,27.36
2022-07-28T13:02:46.223Z,27.37
2022-07-28T13:05:27.168Z,27.16
2022-07-28T13:08:02.153Z,27.07
2022-07-28T13:10:30.168Z,27.05
2022-07-28T13:13:06.137Z,28.42
2022-07-28T13:15:33.010Z,27.01
2022-07-28T13:17:59.966Z,28.84
2022-07-28T13:20:26.949Z,28.51
2022-07-28T13:22:54.280Z,27.49
2022-07-28T13:25:21.174Z,27.71
2022-07-28T13:27:54.277Z,27.39
2022-07-28T13:30:22.562Z,27.41
2022-07-28T13:32:49.321Z,28.15
2022-07-28T13:35:16.012Z,27.69
2022-07-28T13:37:45.835Z,26.89
2022-07-28T13:40:12.891Z,27.48
2022-07-28T13:42:39.478Z,28.28
2022-07-28T13:45:06.346Z,28.88
2022-07-28T13:47:35.631Z,27.02
2022-07-28T13:50:07.276Z,27.74
2022-07-28T13:52:37.308Z,26.94
2022-07-28T13:55:06.187Z,28.51
2022-07-28T13:57:36.325Z,28.53
2022-07-28T14:00:07.370Z,29.41
2022-07-28T14:02:35.476Z,28.15
2022-07-28T14:05:02.578Z,29.20
2022-07-28T14:07:29.245Z,29.12
2022-07-28T14:09:55.731Z,28.18
2022-07-28T14:12:22.372Z,29.18
2022-07-28T14:14:49.222Z,28.35
2022-07-28T14:20:04.414Z,27.85
2022-07-28T14:22:30.970Z,26.58
2022-07-28T14:24:57.390Z,27.80
2022-07-28T14:27:28.970Z,29.45
2022-07-28T14:29:55.903Z,29.40
2022-07-28T14:32:23.079Z,29.57
2022-07-28T14:34:49.523Z,28.37
2022-07-28T14:37:17.122Z,29.13
2022-07-28T14:39:43.843Z,29.88
2022-07-28T14:42:10.714Z,30.30
2022-07-28T14:44:37.432Z,30.17
2022-07-28T14:47:04.290Z,29.01
2022-07-28T14:49:31.123Z,29.15
2022-07-28T14:51:59.257Z,28.61
2022-07-28T14:54:26.050Z,28.73
2022-07-28T14:56:52.660Z,29.88
2022-07-28T14:59:19.170Z,29.39
2022-07-28T15:01:47.431Z,29.49
2022-07-28T15:04:15.933Z,28.80
2022-07-28T15:06:43.149Z,30.16
2022-07-28T15:09:09.729Z,28.73
2022-07-28T15:11:37.026Z,29.77
2022-07-28T15:14:04.459Z,29.73
2022-07-28T15:16:31.331Z,29.88
2022-07-28T15:18:58.229Z,29.34
2022-07-28T15:21:24.985Z,29.82
2022-07-28T15:23:51.437Z,29.41
2022-07-28T15:26:18.256Z,28.63
2022-07-28T15:28:48.254Z,29.37
2022-07-28T15:31:15.695Z,29.21
2022-07-28T15:33:47.689Z,29.91
2022-07-28T15:36:14.564Z,29.08
2022-07-28T15:38:41.042Z,29.03
2022-07-28T15:41:07.569Z,30.71
2022-07-28T15:43:34.209Z,30.11
2022-07-28T15:46:04.521Z,30.12
2022-07-28T15:48:31.544Z,29.40
2022-07-28T15:50:58.045Z,29.33
2022-07-28T15:53:25.203Z,29.49
2022-07-28T15:55:52.065Z,29.28
2022-07-28T15:58:19.801Z,29.50
2022-07-28T16:00:46.434Z,30.62
2022-07-28T16:03:13.315Z,29.85
2022-07-28T16:05:40.169Z,28.87
2022-07-28T16:08:06.675Z,28.56
2022-07-28T16:10:33.388Z,29.16
2022-07-28T16:12:59.957Z,28.58
2022-07-28T16:15:27.050Z,29.24
2022-07-28T16:17:56.813Z,29.54
2022-07-28T16:20:24.366Z,28.63
2022-07-28T16:22:51.040Z,28.74
2022-07-28T16:25:19.753Z,29.24
2022-07-28T16:27:47.507Z,29.27
2022-07-28T16:30:14.504Z,28.81
2022-07-28T16:32:41.461Z,28.66
2022-07-28T16:35:09.083Z,29.31
2022-07-28T16:37:35.807Z,29.25
2022-07-28T16:40:03.614Z,29.88
2022-07-28T16:42:30.237Z,29.66
2022-07-28T16:44:57.187Z,29.55
2022-07-28T16:47:25.347Z,29.70
2022-07-28T16:49:53.997Z,29.62
2022-07-28T16:52:20.480Z,30.29
2022-07-28T16:54:47.406Z,29.57
2022-07-28T16:57:14.619Z,29.86
2022-07-28T16:59:48.195Z,29.13
2022-07-28T17:02:16.687Z,29.30
2022-07-28T17:04:43.267Z,29.45
2022-07-28T17:07:09.801Z,29.46
2022-07-28T17:09:36.364Z,30.17
2022-07-28T17:12:02.853Z,32.31
2022-07-28T17:14:29.261Z,29.29
2022-07-28T17:16:55.911Z,30.58
2022-07-28T17:19:22.846Z,29.92
2022-07-28T17:21:49.387Z,30.10
2022-07-28T17:24:16.313Z,30.69
2022-07-28T17:29:30.034Z,30.98
2022-07-28T17:31:56.915Z,29.90
2022-07-28T17:34:24.008Z,29.95
2022-07-28T17:36:50.513Z,30.11
2022-07-28T17:39:17.045Z,31.30
2022-07-28T17:41:43.535Z,30.13
2022-07-28T17:44:10.033Z,31.87
2022-07-28T17:46:36.727Z,31.36
2022-07-28T17:49:05.154Z,31.50
2022-07-28T17:51:31.882Z,31.48
2022-07-28T17:53:58.770Z,32.07
2022-07-28T17:56:26.117Z,32.16
2022-07-28T17:58:53.053Z,31.57
2022-07-28T18:01:19.607Z,31.46
2022-07-28T18:03:58.595Z,32.20
2022-07-28T18:06:35.235Z,32.41
2022-07-28T18:09:06.603Z,32.00
2022-07-28T18:11:57.610Z,31.84
2022-07-28T18:14:26.269Z,31.95
2022-07-28T18:16:52.813Z,31.99
2022-07-28T18:19:19.243Z,33.05
2022-07-28T18:21:45.688Z,33.17
2022-07-28T18:24:12.281Z,32.95
2022-07-28T18:26:38.917Z,33.16
2022-07-28T18:29:05.435Z,33.90
2022-07-28T18:31:32.045Z,33.94
2022-07-28T18:33:58.693Z,33.84
2022-07-28T18:36:25.270Z,33.87
2022-07-28T18:38:51.777Z,33.74
2022-07-28T18:41:18.229Z,34.45
2022-07-28T18:43:44.674Z,34.91
2022-07-28T18:46:11.372Z,35.75
2022-07-28T18:48:38.280Z,34.79
2022-07-28T18:51:04.898Z,35.21
2022-07-28T18:53:31.386Z,34.95
2022-07-28T18:55:58.248Z,35.48
2022-07-28T19:01:42.472Z,36.04
2022-07-28T19:07:25.391Z,36.21
2022-07-28T19:10:07.415Z,36.38
2022-07-28T19:13:00.384Z,36.27
2022-07-28T19:16:00.256Z,36.61
2022-07-28T19:18:49.714Z,37.38
2022-07-28T19:21:16.431Z,37.12
2022-07-28T19:23:43.572Z,38.30
2022-07-28T19:26:10.012Z,38.43
2022-07-28T19:28:36.764Z,38.17
2022-07-28T19:31:10.447Z,38.07
2022-07-28T19:33:37.509Z,38.30
2022-07-28T19:36:10.807Z,39.32
2022-07-28T19:38:37.415Z,38.26
2022-07-28T19:41:03.862Z,38.43
2022-07-28T19:43:31.116Z,39.16
2022-07-28T19:46:00.071Z,40.10
2022-07-28T19:48:26.865Z,39.42
2022-07-28T19:50:53.946Z,39.61
2022-07-28T19:53:20.686Z,40.19
2022-07-28T19:55:52.768Z,40.67
2022-07-28T19:58:19.751Z,40.86
2022-07-28T20:00:48.353Z,40.84
2022-07-28T20:04:02.101Z,39.56
2022-07-28T20:06:02.445Z,40.00
2022-07-28T20:08:29.034Z,41.13
2022-07-28T20:10:55.786Z,41.41
2022-07-28T20:13:22.407Z,41.38
2022-07-28T20:15:48.955Z,41.04
2022-07-28T20:18:19.225Z,42.08
2022-07-28T20:20:47.046Z,41.83
2022-07-28T20:23:14.790Z,42.03
2022-07-28T20:25:42.226Z,42.98
2022-07-28T20:28:09.067Z,42.41
2022-07-28T20:30:35.555Z,42.47
2022-07-28T20:33:04.482Z,42.99
2022-07-28T20:35:31.937Z,43.33
2022-07-28T20:37:58.623Z,43.81
2022-07-28T20:40:25.107Z,44.19
2022-07-28T20:42:53.863Z,43.91
2022-07-28T20:45:20.760Z,44.05
2022-07-28T20:47:47.190Z,44.51
2022-07-28T20:50:14.677Z,44.94
2022-07-28T20:52:41.537Z,46.19
2022-07-28T20:55:08.974Z,45.20
2022-07-28T20:57:35.435Z,45.33
2022-07-28T21:00:02.049Z,46.42
2022-07-28T21:02:28.555Z,46.37
2022-07-28T21:04:55.100Z,46.59
2022-07-28T21:08:00.255Z,47.06
2022-07-28T21:10:09.373Z,48.02
2022-07-28T21:12:39.591Z,47.83
2022-07-28T21:15:07.361Z,49.17
2022-07-28T21:17:33.967Z,50.26
2022-07-28T21:20:00.601Z,50.31
2022-07-28T21:22:27.391Z,50.42
2022-07-28T21:24:55.601Z,49.99
2022-07-28T21:27:23.372Z,51.85
2022-07-28T21:32:17.475Z,53.59
2022-07-28T21:34:43.963Z,53.11
2022-07-28T21:37:11.627Z,53.50
2022-07-28T21:39:38.543Z,54.61
2022-07-28T21:42:08.157Z,54.30
2022-07-28T21:44:35.832Z,56.04
2022-07-28T21:47:02.334Z,55.66
2022-07-28T21:49:31.092Z,57.50
2022-07-28T21:51:57.621Z,57.48
2022-07-28T21:54:24.227Z,55.81
2022-07-28T21:56:50.762Z,58.60
2022-07-28T21:59:17.308Z,57.88
2022-07-28T22:01:43.912Z,59.81
2022-07-28T22:04:10.559Z,60.32
2022-07-28T22:06:36.988Z,58.42
2022-07-28T22:09:03.697Z,59.80
2022-07-28T22:11:30.639Z,59.73
2022-07-28T22:13:57.232Z,60.60
2022-07-28T22:16:23.928Z,61.13
2022-07-28T22:18:50.399Z,60.84
2022-07-28T22:21:16.830Z,62.49
2022-07-28T22:23:43.304Z,63.08
2022-07-28T22:26:09.756Z,64.35
2022-07-28T22:28:36.215Z,64.43
2022-07-28T22:31:08.799Z,65.40
2022-07-28T22:33:40.009Z,64.93
2022-07-28T22:36:08.461Z,65.75
2022-07-28T22:38:35.173Z,67.17
2022-07-28T22:41:01.666Z,66.88
2022-07-28T22:43:28.251Z,67.01
2022-07-28T22:45:54.711Z,68.48
2022-07-28T22:48:21.208Z,67.37
2022-07-28T22:50:47.668Z,67.63
2022-07-28T22:53:15.594Z,69.41
2022-07-28T22:55:42.037Z,69.35
2022-07-28T22:58:08.521Z,70.01
2022-07-28T23:00:36.213Z,70.80
2022-07-28T23:03:04.192Z,71.11
2022-07-28T23:05:30.816Z,72.21
2022-07-28T23:07:58.706Z,70.28
2022-07-28T23:10:26.583Z,70.79
2022-07-28T23:12:55.185Z,70.35
2022-07-28T23:15:39.541Z,71.81
2022-07-28T23:18:14.083Z,70.51
2022-07-28T23:20:42.136Z,72.06
2022-07-28T23:23:10.302Z,73.02
2022-07-28T23:25:40.612Z,72.58
2022-07-28T23:28:08.703Z,71.84
2022-07-28T23:30:36.068Z,72.82
2022-07-28T23:33:05.231Z,72.58
2022-07-28T23:35:31.754Z,73.55
2022-07-28T23:37:59.294Z,74.09
2022-07-28T23:40:25.968Z,74.40
2022-07-28T23:42:53.219Z,73.50
2022-07-28T23:45:20.560Z,74.86
2022-07-28T23:47:47.986Z,75.56
2022-07-28T23:50:14.587Z,74.86
2022-07-28T23:52:41.023Z,75.20
2022-07-28T23:55:07.882Z,76.05
2022-07-28T23:57:34.494Z,77.09
